Time;durP1;ratioP1;P1;durP2;ratioP2;P2;SDS_P1;SDS_P2;PMS_P1;PMS_P2;Temp;Humidity;BMP_temperature;BMP_pressure;BME280_temperature;BME280_humidity;BME280_pressure;Samples;Min_cycle;Max_cycle;Signal;HPM_P1;HPM_P2
2022/12/05 00:01:42;;;;;;;6.55;1.50;;;;;;;14.84;58.24;101686.44;5014324;28;20029;-47
2022/12/05 00:04:11;;;;;;;7.68;1.65;;;;;;;14.87;58.04;101687.88;5031813;28;20032;-46
2022/12/05 00:06:39;;;;;;;4.18;1.10;;;;;;;14.98;57.85;101681.81;5028207;28;20050;-46
2022/12/05 00:09:08;;;;;;;5.00;1.67;;;;;;;14.93;58.03;101685.13;5015896;28;20076;-46
2022/12/05 00:11:37;;;;;;;4.78;1.13;;;;;;;14.82;58.23;101683.09;5021997;28;20139;-45
2022/12/05 00:14:04;;;;;;;5.40;1.75;;;;;;;14.82;58.27;101685.81;5022371;28;20025;-46
2022/12/05 00:16:32;;;;;;;7.00;1.38;;;;;;;14.67;59.10;101687.97;5016520;28;20497;-45
2022/12/05 00:18:59;;;;;;;6.63;1.65;;;;;;;14.64;59.81;101685.66;5017403;28;20033;-45
2022/12/05 00:21:28;;;;;;;7.93;1.77;;;;;;;14.67;60.15;101679.88;5031564;28;20033;-45
2022/12/05 00:23:56;;;;;;;5.22;1.30;;;;;;;14.47;60.15;101674.53;5031283;28;20029;-45
2022/12/05 00:26:22;;;;;;;6.85;1.33;;;;;;;14.49;60.25;101678.69;5031562;28;20017;-46
2022/12/05 00:28:48;;;;;;;15.15;1.88;;;;;;;14.37;60.82;101683.00;5030965;28;20188;-47
2022/12/05 00:31:17;;;;;;;7.97;1.50;;;;;;;14.42;60.52;101685.91;5030807;28;20021;-47
2022/12/05 00:33:44;;;;;;;10.23;1.58;;;;;;;14.53;60.32;101692.53;5011767;28;20033;-47
2022/12/05 00:36:22;;;;;;;6.35;1.67;;;;;;;14.41;61.08;101697.72;5023891;28;20457;-48
2022/12/05 00:38:48;;;;;;;9.13;1.73;;;;;;;14.47;61.61;101702.28;5051431;28;20116;-46
2022/12/05 00:41:17;;;;;;;5.65;1.80;;;;;;;14.47;61.54;101702.28;5033524;28;20033;-47
2022/12/05 00:43:44;;;;;;;5.18;1.35;;;;;;;14.47;61.72;101707.69;5019145;28;20022;-47
2022/12/05 00:46:12;;;;;;;5.80;1.98;;;;;;;14.40;62.02;101720.31;5031285;28;20029;-46
2022/12/05 00:48:39;;;;;;;5.43;1.98;;;;;;;14.53;61.69;101719.47;5011068;28;20037;-47
2022/12/05 00:51:11;;;;;;;8.70;2.67;;;;;;;14.37;62.64;101712.63;5011640;28;20049;-45
2022/12/05 00:53:38;;;;;;;9.88;2.80;;;;;;;14.44;64.17;101716.16;5021678;28;20022;-48
2022/12/05 00:56:07;;;;;;;5.85;1.88;;;;;;;14.20;66.02;101708.72;5022757;28;20048;-45
2022/12/05 00:58:34;;;;;;;6.03;2.25;;;;;;;14.00;67.04;101706.88;5012833;28;20033;-45
2022/12/05 01:01:33;;;;;;;10.43;2.63;;;;;;;13.99;67.55;101709.75;5013238;28;20474;-45
2022/12/05 01:04:04;;;;;;;5.60;1.60;;;;;;;13.65;66.97;101697.34;5009068;28;20037;-45
2022/12/05 01:06:31;;;;;;;3.45;1.10;;;;;;;13.79;66.39;101693.63;5034592;28;20033;-46
2022/12/05 01:08:57;;;;;;;4.13;1.17;;;;;;;13.73;66.80;101697.16;5034589;28;20033;-46
2022/12/05 01:11:24;;;;;;;4.03;1.30;;;;;;;13.58;67.61;101694.63;5035456;28;20029;-48
2022/12/05 01:13:51;;;;;;;7.35;1.40;;;;;;;13.54;67.66;101690.69;5033317;28;20123;-47
2022/12/05 01:16:21;;;;;;;5.70;1.20;;;;;;;13.49;67.83;101690.47;5015091;28;20065;-47
2022/12/05 01:18:47;;;;;;;3.38;1.25;;;;;;;13.44;68.43;101693.81;5013417;28;20502;-48
2022/12/05 01:21:14;;;;;;;9.68;1.85;;;;;;;13.35;69.44;101703.09;5014872;28;20364;-47
2022/12/05 01:23:40;;;;;;;5.75;1.63;;;;;;;13.42;70.02;101714.69;5014867;28;20386;-49
2022/12/05 01:26:09;;;;;;;4.95;1.65;;;;;;;13.27;71.16;101710.50;5014897;28;20053;-45
2022/12/05 01:28:35;;;;;;;9.63;2.00;;;;;;;13.40;70.85;101708.69;5032548;28;20060;-45
2022/12/05 01:31:18;;;;;;;7.90;1.85;;;;;;;13.43;70.88;101721.72;5034275;28;20424;-46
2022/12/05 01:33:44;;;;;;;8.98;1.50;;;;;;;13.40;70.88;101722.13;5032507;28;20104;-45
2022/12/05 01:36:11;;;;;;;8.18;1.50;;;;;;;13.37;70.85;101706.38;5033813;28;20216;-47
2022/12/05 01:38:42;;;;;;;4.78;2.28;;;;;;;13.33;70.22;101713.22;5033515;28;20441;-49
2022/12/05 01:41:14;;;;;;;7.00;1.48;;;;;;;13.41;69.44;101709.50;5031787;28;20116;-47
2022/12/05 01:44:12;;;;;;;8.50;2.03;;;;;;;13.35;69.01;101721.91;5034859;28;20017;-46
2022/12/05 01:46:50;;;;;;;6.03;1.60;;;;;;;13.11;69.50;101715.19;5053934;28;20029;-46
2022/12/05 01:49:36;;;;;;;7.18;1.67;;;;;;;13.09;69.39;101708.34;5053743;28;20481;-49
2022/12/05 01:52:10;;;;;;;5.68;1.52;;;;;;;13.11;69.41;101703.63;5030170;28;20525;-48
2022/12/05 01:54:38;;;;;;;5.32;1.75;;;;;;;13.08;69.54;101712.06;5033720;28;20046;-45
2022/12/05 01:57:07;;;;;;;8.32;2.13;;;;;;;13.24;68.99;101705.53;5015428;28;20033;-47
2022/12/05 01:59:38;;;;;;;7.15;1.88;;;;;;;13.07;69.22;101705.88;5033432;28;20037;-47
2022/12/05 02:02:05;;;;;;;9.23;1.90;;;;;;;13.07;69.42;101703.19;5034401;28;20025;-47
2022/12/05 02:04:37;;;;;;;8.52;2.30;;;;;;;13.03;69.32;101712.66;5033919;28;20026;-47
2022/12/05 02:07:04;;;;;;;38.80;14.02;;;;;;;13.08;69.24;101715.56;5033642;28;20547;-46
2022/12/05 02:09:30;;;;;;;57.47;16.60;;;;;;;13.12;69.29;101713.31;5033307;28;20065;-46
2022/12/05 02:11:59;;;;;;;130.77;31.55;;;;;;;13.04;69.11;101716.19;5033529;28;20496;-46
2022/12/05 02:14:28;;;;;;;89.05;24.02;;;;;;;13.04;69.32;101724.25;5022016;28;20030;-45
2022/12/05 02:17:21;;;;;;;42.17;12.02;;;;;;;12.98;69.91;101725.03;5013367;28;20049;-46
2022/12/05 02:19:50;;;;;;;65.70;18.85;;;;;;;12.84;70.47;101741.13;5030198;28;20033;-50
2022/12/05 02:22:34;;;;;;;40.22;12.23;;;;;;;12.77;71.50;101732.19;5013714;28;20034;-46
2022/12/05 02:25:39;;;;;;;56.58;17.98;;;;;;;12.84;71.63;101735.75;5013472;28;20390;-50
2022/12/05 02:28:17;;;;;;;55.13;16.40;;;;;;;12.73;71.37;101739.00;4998516;28;20391;-47
2022/12/05 02:30:48;;;;;;;14.15;5.30;;;;;;;12.64;69.52;101735.63;5033198;28;20108;-46
2022/12/05 02:33:25;;;;;;;11.93;3.45;;;;;;;12.58;69.72;101727.53;5031246;28;20041;-49
2022/12/05 02:36:08;;;;;;;7.95;2.95;;;;;;;12.46;70.31;101743.38;5025063;28;20080;-46
2022/12/05 02:39:03;;;;;;;8.60;1.60;;;;;;;12.48;70.65;101730.56;5012695;28;20489;-49
2022/12/05 02:42:24;;;;;;;4.37;1.37;;;;;;;12.55;71.11;101725.25;5012267;28;20040;-47
2022/12/05 02:44:56;;;;;;;3.45;0.93;;;;;;;12.47;71.69;101723.53;4933480;29;20126;-50
2022/12/05 02:47:27;;;;;;;4.60;1.35;;;;;;;12.27;73.22;101715.38;5009452;28;20477;-47
2022/12/05 02:49:55;;;;;;;6.95;1.45;;;;;;;12.15;73.79;101720.41;5010335;28;20037;-47
2022/12/05 02:52:22;;;;;;;3.03;1.23;;;;;;;11.98;74.55;101715.53;5020510;28;20025;-46
2022/12/05 02:54:51;;;;;;;4.70;1.33;;;;;;;11.74;75.60;101706.84;5032275;28;20487;-46
2022/12/05 02:57:20;;;;;;;4.68;0.85;;;;;;;12.01;74.60;101717.84;5015620;28;20030;-50
2022/12/05 02:59:46;;;;;;;3.95;1.05;;;;;;;12.22;73.63;101717.81;5028516;28;20033;-47
2022/12/05 03:02:29;;;;;;;4.63;1.13;;;;;;;12.32;73.17;101726.31;5032611;28;20029;-46
2022/12/05 03:05:01;;;;;;;3.42;1.10;;;;;;;12.37;72.93;101725.72;5032296;28;20017;-46
2022/12/05 03:07:29;;;;;;;4.80;1.25;;;;;;;12.49;72.84;101731.38;5031957;28;20068;-49
2022/12/05 03:10:03;;;;;;;2.70;1.17;;;;;;;12.44;72.59;101732.00;5037680;28;20032;-49
2022/12/05 03:12:48;;;;;;;4.18;1.80;;;;;;;12.38;72.65;101728.25;5012741;28;20024;-47
2022/12/05 03:15:29;;;;;;;3.38;1.30;;;;;;;12.36;72.81;101730.28;5031196;28;20512;-46
2022/12/05 03:18:05;;;;;;;2.03;0.90;;;;;;;12.27;72.79;101726.09;5032050;28;20473;-47
2022/12/05 03:20:47;;;;;;;3.00;1.20;;;;;;;12.32;72.44;101729.00;5032515;28;20494;-46
2022/12/05 03:23:45;;;;;;;6.07;1.20;;;;;;;12.09;71.67;101731.09;5041058;28;20036;-48
2022/12/05 03:26:28;;;;;;;1.58;0.93;;;;;;;12.22;71.31;101735.75;5041584;28;20021;-45
2022/12/05 03:29:12;;;;;;;4.15;1.40;;;;;;;12.29;70.99;101734.78;5051945;28;20109;-47
2022/12/05 03:31:53;;;;;;;4.93;2.05;;;;;;;12.28;70.74;101743.03;5010610;28;20093;-47
2022/12/05 03:34:48;;;;;;;4.70;1.80;;;;;;;12.02;71.88;101744.47;5012162;28;20017;-46
2022/12/05 03:37:39;;;;;;;4.32;1.95;;;;;;;12.11;71.70;101740.63;5049512;28;20035;-50
2022/12/05 03:40:10;;;;;;;4.93;1.77;;;;;;;11.98;71.92;101743.19;4990019;28;20045;-47
2022/12/05 03:42:46;;;;;;;5.05;1.48;;;;;;;12.17;70.92;101733.66;5032102;28;20557;-48
2022/12/05 03:45:15;;;;;;;;;;;;;;;11.90;72.23;101727.25;5031297;28;20429;-50
2022/12/05 03:47:48;;;;;;;5.13;1.30;;;;;;;11.98;72.37;101728.94;5030928;28;19916;-51
2022/12/05 03:50:23;;;;;;;4.65;1.40;;;;;;;11.99;72.53;101730.59;5035753;28;20377;-51
2022/12/05 03:53:15;;;;;;;6.88;1.88;;;;;;;12.19;72.21;101736.97;5041445;28;20370;-47
2022/12/05 03:55:45;;;;;;;7.95;2.13;;;;;;;12.11;72.44;101729.91;5039074;28;20073;-48
2022/12/05 03:58:26;;;;;;;7.05;2.17;;;;;;;11.85;73.02;101730.50;5051557;28;20445;-47
2022/12/05 04:00:55;;;;;;;4.90;1.80;;;;;;;11.72;73.68;101714.25;5037365;28;20036;-50
2022/12/05 04:03:50;;;;;;;5.32;1.77;;;;;;;11.85;73.14;101719.75;5019550;28;20060;-49
2022/12/05 04:06:33;;;;;;;5.43;1.80;;;;;;;11.71;73.10;101717.94;5030503;28;20486;-50
2022/12/05 04:09:33;;;;;;;3.35;1.60;;;;;;;11.81;72.44;101717.63;5031257;28;20414;-48
2022/12/05 04:12:09;;;;;;;3.72;1.52;;;;;;;11.95;71.79;101715.94;5020156;28;20045;-51
2022/12/05 04:14:49;;;;;;;3.08;1.27;;;;;;;11.94;71.36;101717.78;5031538;28;20037;-49
2022/12/05 04:17:30;;;;;;;6.47;2.10;;;;;;;12.02;70.87;101725.69;5038014;28;20035;-49
2022/12/05 04:22:48;;;;;;;6.00;2.30;;;;;;;11.91;70.98;101710.13;5036674;28;20036;-49
2022/12/05 04:25:32;;;;;;;4.05;1.85;;;;;;;11.90;70.01;101711.16;5031294;28;20021;-48
2022/12/05 04:28:39;;;;;;;6.03;1.48;;;;;;;11.90;68.97;101708.47;5031472;28;20032;-47
2022/12/05 04:31:19;;;;;;;4.13;1.17;;;;;;;11.83;69.27;101704.91;5001852;28;20497;-48
2022/12/05 04:33:54;;;;;;;3.67;1.30;;;;;;;11.98;69.30;101719.03;5015506;28;20524;-46
2022/12/05 04:36:31;;;;;;;3.85;1.30;;;;;;;11.97;69.78;101716.56;5031590;28;20022;-47
2022/12/05 04:39:13;;;;;;;5.72;1.17;;;;;;;11.94;70.01;101707.06;5034814;28;20056;-45
2022/12/05 04:41:46;;;;;;;4.25;1.35;;;;;;;11.99;70.46;101704.59;5014414;28;20125;-47
2022/12/05 04:44:18;;;;;;;3.60;1.10;;;;;;;11.94;71.17;101704.38;5019088;28;20021;-46
2022/12/05 04:46:47;;;;;;;3.45;1.40;;;;;;;12.04;71.27;101696.78;5028246;28;20026;-50
2022/12/05 04:49:24;;;;;;;8.27;2.03;;;;;;;11.94;71.60;101695.47;5014847;28;20030;-46
2022/12/05 04:51:54;;;;;;;11.20;2.60;;;;;;;11.73;72.45;101694.47;5015479;28;20033;-49
2022/12/05 04:54:28;;;;;;;11.30;2.15;;;;;;;11.86;72.70;101688.41;5015325;28;20076;-47
2022/12/05 04:57:01;;;;;;;4.40;1.48;;;;;;;11.88;73.31;101689.88;5054669;28;20029;-48
2022/12/05 04:59:27;;;;;;;5.68;1.40;;;;;;;11.89;73.21;101690.72;5031587;28;20053;-47
2022/12/05 05:01:59;;;;;;;2.88;1.02;;;;;;;11.87;73.32;101684.69;5015177;28;20032;-49
2022/12/05 05:04:46;;;;;;;7.25;1.40;;;;;;;11.75;73.95;101687.03;5014879;28;20026;-47
2022/12/05 05:07:14;;;;;;;6.47;1.77;;;;;;;11.84;73.78;101688.59;5015077;28;20060;-47
2022/12/05 05:09:41;;;;;;;3.97;1.58;;;;;;;11.84;73.46;101680.56;5014653;28;20501;-49
2022/12/05 05:12:07;;;;;;;7.22;1.65;;;;;;;11.76;74.04;101688.69;5014973;28;20046;-47
2022/12/05 05:14:34;;;;;;;5.13;1.63;;;;;;;11.84;73.81;101679.72;5019898;28;20025;-48
2022/12/05 05:17:00;;;;;;;6.43;1.50;;;;;;;11.87;74.12;101680.16;5013735;28;20113;-47
2022/12/05 05:19:27;;;;;;;4.07;1.05;;;;;;;11.94;73.84;101680.22;5014455;28;20022;-51
2022/12/05 05:21:53;;;;;;;5.53;1.92;;;;;;;11.72;74.58;101679.41;5014462;28;20033;-47
2022/12/05 05:24:25;;;;;;;6.07;1.80;;;;;;;11.92;74.23;101682.25;5019459;28;20366;-46
2022/12/05 05:26:52;;;;;;;6.25;1.60;;;;;;;11.78;74.77;101683.97;5034338;28;20473;-46
2022/12/05 05:29:18;;;;;;;2.85;1.35;;;;;;;11.78;74.55;101692.03;5034078;28;20389;-46
2022/12/05 05:31:45;;;;;;;4.88;1.25;;;;;;;11.87;74.48;101696.25;5029216;28;20517;-46
2022/12/05 05:34:14;;;;;;;3.42;1.35;;;;;;;11.87;74.61;101692.75;5020398;28;20021;-48
2022/12/05 05:36:41;;;;;;;3.33;1.45;;;;;;;11.73;75.12;101690.94;5054090;28;20029;-47
2022/12/05 05:39:12;;;;;;;2.97;1.35;;;;;;;11.76;75.14;101696.75;5053889;28;20464;-49
2022/12/05 05:41:39;;;;;;;3.45;1.45;;;;;;;11.84;74.46;101683.25;5034401;28;20037;-48
2022/12/05 05:44:05;;;;;;;7.35;1.60;;;;;;;11.66;75.08;101693.56;5034162;28;20021;-46
2022/12/05 05:46:34;;;;;;;3.58;1.30;;;;;;;11.78;75.01;101697.41;5034153;28;20508;-49
2022/12/05 05:49:01;;;;;;;5.07;1.60;;;;;;;11.62;75.04;101697.66;5032628;28;20029;-46
2022/12/05 05:51:29;;;;;;;6.03;1.25;;;;;;;11.50;75.47;101691.97;5033935;28;20026;-49
2022/12/05 05:53:56;;;;;;;5.65;1.20;;;;;;;11.53;75.37;101693.44;5033453;28;20466;-49
2022/12/05 05:56:23;;;;;;;4.97;1.55;;;;;;;11.60;74.87;101676.41;5051788;28;20072;-46
2022/12/05 05:58:58;;;;;;;2.47;1.08;;;;;;;11.70;74.75;101686.78;5053502;28;20033;-47
2022/12/05 06:01:25;;;;;;;3.45;1.10;;;;;;;11.59;74.70;101687.31;5053711;28;20108;-47
2022/12/05 06:03:52;;;;;;;4.68;1.30;;;;;;;11.60;74.72;101691.63;5038381;28;20100;-47
2022/12/05 06:06:19;;;;;;;4.10;1.38;;;;;;;11.55;74.95;101684.19;5033631;28;20099;-46
2022/12/05 06:08:46;;;;;;;3.17;1.10;;;;;;;11.81;74.31;101683.63;5033319;28;20029;-50
2022/12/05 06:11:15;;;;;;;4.82;0.90;;;;;;;11.71;74.65;101679.56;5033427;28;20029;-46
2022/12/05 06:13:42;;;;;;;5.03;1.08;;;;;;;11.57;75.21;101684.00;5032901;28;20042;-46
2022/12/05 06:16:11;;;;;;;3.22;1.10;;;;;;;11.62;75.20;101686.94;5015116;28;20036;-49
2022/12/05 06:18:37;;;;;;;2.83;0.90;;;;;;;11.54;75.06;101677.16;5013278;28;20033;-46
2022/12/05 06:21:07;;;;;;;4.00;1.30;;;;;;;11.39;75.82;101670.22;5013413;28;20033;-48
2022/12/05 06:23:34;;;;;;;3.55;1.30;;;;;;;11.35;75.68;101673.25;5018689;28;20032;-46
2022/12/05 06:26:01;;;;;;;2.88;1.20;;;;;;;11.29;76.43;101668.66;5033182;28;20470;-46
2022/12/05 06:28:27;;;;;;;7.10;1.42;;;;;;;11.63;75.46;101680.53;5033069;28;20429;-50
2022/12/05 06:30:54;;;;;;;3.83;1.10;;;;;;;11.49;75.77;101676.06;5033258;28;20025;-48
2022/12/05 06:33:20;;;;;;;8.48;1.60;;;;;;;11.39;75.89;101670.22;5014705;28;20030;-46
2022/12/05 06:35:47;;;;;;;4.95;1.20;;;;;;;11.27;76.13;101678.75;5033091;28;20386;-47
2022/12/05 06:38:13;;;;;;;6.05;1.30;;;;;;;11.39;75.91;101671.03;5033020;28;20057;-49
2022/12/05 06:40:41;;;;;;;2.63;1.20;;;;;;;11.56;75.01;101674.28;5030555;28;20115;-46
2022/12/05 06:43:08;;;;;;;5.15;1.25;;;;;;;11.52;74.86;101670.31;5012351;28;20030;-46
2022/12/05 06:45:36;;;;;;;4.93;1.40;;;;;;;11.49;74.79;101665.34;5028010;28;20494;-47
2022/12/05 06:48:02;;;;;;;4.95;1.20;;;;;;;11.50;74.88;101657.13;5022398;28;20026;-46
2022/12/05 06:50:29;;;;;;;3.75;1.35;;;;;;;11.38;75.22;101658.63;5012863;28;20029;-47
2022/12/05 06:52:55;;;;;;;6.25;1.23;;;;;;;11.42;74.91;101659.09;5012989;28;20068;-48
2022/12/05 06:55:21;;;;;;;6.90;1.67;;;;;;;11.44;74.71;101657.03;5012872;28;20041;-48
2022/12/05 06:57:48;;;;;;;5.30;1.63;;;;;;;11.62;74.06;101660.13;5012739;28;20022;-48
2022/12/05 07:02:59;;;;;;;6.32;1.38;;;;;;;11.37;74.23;101665.84;5032972;28;20106;-48
2022/12/05 07:05:25;;;;;;;5.63;1.50;;;;;;;11.18;75.18;101663.81;5032700;28;20095;-45
2022/12/05 07:07:52;;;;;;;10.27;1.70;;;;;;;11.13;75.44;101655.50;5032113;28;20026;-46
2022/12/05 07:10:18;;;;;;;6.28;1.70;;;;;;;11.07;75.70;101661.63;5032509;28;20387;-48
2022/12/05 07:12:44;;;;;;;4.43;1.15;;;;;;;11.02;76.22;101658.69;5032043;28;20441;-45
2022/12/05 07:15:11;;;;;;;4.90;2.00;;;;;;;10.91;76.60;101651.13;5032784;28;20071;-46
2022/12/05 07:17:37;;;;;;;10.45;1.70;;;;;;;11.04;76.22;101653.94;5032352;28;20025;-46
2022/12/05 07:20:09;;;;;;;4.78;1.80;;;;;;;11.12;76.13;101643.13;5041987;28;20435;-46
2022/12/05 07:22:36;;;;;;;6.68;2.08;;;;;;;11.08;75.86;101645.34;5050160;28;20024;-48
2022/12/05 07:25:03;;;;;;;6.68;2.00;;;;;;;10.99;76.23;101642.97;5012815;28;20121;-46
2022/12/05 07:27:30;;;;;;;5.90;1.88;;;;;;;10.85;76.72;101644.69;5012140;28;20105;-46
2022/12/05 07:29:56;;;;;;;4.45;1.50;;;;;;;10.85;77.10;101642.00;5011560;28;20037;-45
2022/12/05 07:32:22;;;;;;;5.70;1.63;;;;;;;10.93;76.78;101635.69;5012251;28;20037;-45
2022/12/05 07:34:48;;;;;;;9.27;1.70;;;;;;;10.71;77.33;101638.31;5011043;28;20463;-47
2022/12/05 07:37:15;;;;;;;4.45;1.70;;;;;;;10.84;76.95;101638.50;5032175;28;20037;-46
2022/12/05 07:39:41;;;;;;;5.75;1.80;;;;;;;10.92;76.57;101632.19;5043182;28;20044;-46
2022/12/05 07:42:07;;;;;;;4.57;1.80;;;;;;;10.92;76.79;101626.00;5051606;28;20025;-45
2022/12/05 07:44:34;;;;;;;7.82;1.92;;;;;;;10.82;76.82;101626.28;5039394;28;20040;-45
2022/12/05 07:47:00;;;;;;;7.47;2.08;;;;;;;10.91;77.11;101637.75;5031862;28;20041;-46
2022/12/05 07:49:26;;;;;;;7.15;1.73;;;;;;;10.82;77.43;101637.84;5031802;28;20112;-47
2022/12/05 07:51:53;;;;;;;5.78;1.63;;;;;;;10.62;78.42;101631.44;5031778;28;20022;-50
2022/12/05 07:54:19;;;;;;;9.15;2.30;;;;;;;10.88;77.81;101624.72;5031554;28;20021;-44
2022/12/05 07:56:45;;;;;;;7.90;1.95;;;;;;;10.49;79.30;101617.84;5043472;28;20078;-46
2022/12/05 07:59:12;;;;;;;6.68;1.90;;;;;;;10.66;79.53;101613.97;5043897;28;20032;-45
2022/12/05 08:01:38;;;;;;;7.10;2.15;;;;;;;10.44;80.48;101599.72;5031715;28;20029;-46
2022/12/05 08:04:04;;;;;;;5.55;1.90;;;;;;;10.50;80.67;101598.97;5031557;28;20025;-48
2022/12/05 08:06:33;;;;;;;4.63;2.08;;;;;;;10.80;79.45;101599.72;5031751;28;20377;-46
2022/12/05 08:08:59;;;;;;;3.63;1.45;;;;;;;10.68;79.92;101603.06;5031271;28;20029;-45
2022/12/05 08:11:29;;;;;;;7.97;1.83;;;;;;;10.72;80.04;101602.50;5027802;28;20041;-46
2022/12/05 08:13:56;;;;;;;8.73;2.22;;;;;;;10.63;80.44;101590.25;5014815;28;20101;-47
2022/12/05 08:16:25;;;;;;;7.07;1.85;;;;;;;10.48;80.82;101589.44;5016056;28;20049;-49
2022/12/05 08:19:00;;;;;;;5.43;1.70;;;;;;;10.58;80.71;101576.59;5015263;28;20065;-49
2022/12/05 08:21:27;;;;;;;9.65;2.47;;;;;;;10.62;80.58;101577.88;5017938;28;20017;-47
2022/12/05 08:23:53;;;;;;;5.28;1.75;;;;;;;10.62;80.23;101577.88;5035680;28;20490;-45
2022/12/05 08:26:24;;;;;;;7.80;2.13;;;;;;;10.66;80.03;101573.81;5035727;28;20021;-47
2022/12/05 08:28:59;;;;;;;4.15;1.85;;;;;;;10.51;80.76;101581.03;5034520;28;20061;-46
2022/12/05 08:31:28;;;;;;;5.95;1.80;;;;;;;10.44;81.22;101569.44;5022800;28;20037;-47
2022/12/05 08:33:57;;;;;;;6.60;2.00;;;;;;;10.57;80.81;101564.22;5035378;28;20061;-46
2022/12/05 08:36:24;;;;;;;4.68;1.80;;;;;;;10.64;80.68;101570.47;5035301;28;20025;-46
2022/12/05 08:38:56;;;;;;;4.50;1.98;;;;;;;10.79;80.12;101562.41;5034735;28;20068;-47
2022/12/05 08:41:27;;;;;;;5.75;1.50;;;;;;;10.58;80.82;101560.53;5035669;28;20092;-46
2022/12/05 08:43:54;;;;;;;4.93;1.50;;;;;;;10.73;80.32;101553.28;5035150;28;20124;-47
2022/12/05 08:46:20;;;;;;;6.45;1.45;;;;;;;10.68;80.09;101553.03;5035309;28;20022;-46
2022/12/05 08:48:47;;;;;;;6.43;1.63;;;;;;;10.72;80.33;101557.00;5033973;28;20083;-46
2022/12/05 08:51:13;;;;;;;7.15;1.70;;;;;;;10.71;79.51;101549.97;5035270;28;20113;-46
2022/12/05 08:53:40;;;;;;;4.60;1.33;;;;;;;10.68;79.90;101553.03;5017891;28;20034;-46
2022/12/05 08:56:07;;;;;;;4.28;1.52;;;;;;;10.68;79.54;101545.00;5015007;28;20100;-47
2022/12/05 08:58:34;;;;;;;5.18;1.40;;;;;;;10.68;79.55;101539.66;5014788;28;20028;-46
2022/12/05 09:01:07;;;;;;;3.60;1.42;;;;;;;10.85;78.79;101550.94;5015220;28;20026;-46
2022/12/05 09:03:34;;;;;;;4.80;1.58;;;;;;;10.78;79.28;101545.53;5014970;28;20025;-47
2022/12/05 09:06:12;;;;;;;5.68;1.60;;;;;;;10.60;79.56;101545.09;5032040;28;20386;-47
2022/12/05 09:08:40;;;;;;;4.05;1.20;;;;;;;10.66;79.34;101544.38;5034464;28;20034;-46
2022/12/05 09:11:08;;;;;;;5.85;1.42;;;;;;;10.74;78.97;101543.41;5034729;28;20032;-46
2022/12/05 09:13:35;;;;;;;2.83;1.33;;;;;;;10.69;79.15;101535.94;5051368;28;20447;-47
2022/12/05 09:16:09;;;;;;;5.53;1.75;;;;;;;10.79;78.39;101536.47;5039672;28;20564;-47
2022/12/05 09:18:36;;;;;;;4.72;1.33;;;;;;;10.81;78.29;101534.41;5034214;28;20038;-47
2022/12/05 09:21:10;;;;;;;4.93;1.60;;;;;;;10.82;78.54;101537.91;5034620;28;20363;-46
2022/12/05 09:23:36;;;;;;;4.07;1.30;;;;;;;10.81;78.05;101539.78;5034304;28;20026;-48
2022/12/05 09:26:04;;;;;;;6.13;1.70;;;;;;;10.70;79.00;101536.78;5034074;28;20033;-46
2022/12/05 09:28:31;;;;;;;6.75;1.92;;;;;;;10.77;78.38;101526.94;5033866;28;20040;-46
2022/12/05 09:31:10;;;;;;;4.35;2.30;;;;;;;10.80;78.42;101524.72;5034583;28;20478;-46
2022/12/05 09:33:37;;;;;;;6.55;1.48;;;;;;;10.84;77.99;101528.69;5052298;28;20040;-46
2022/12/05 09:36:25;;;;;;;6.63;1.75;;;;;;;10.87;78.15;101527.47;5028257;28;20033;-46
2022/12/05 09:38:52;;;;;;;4.35;1.88;;;;;;;10.81;78.24;101526.38;5034035;28;20030;-46
2022/12/05 09:44:53;;;;;;;6.72;2.22;;;;;;;10.83;78.44;101526.22;5034453;28;20033;-46
2022/12/05 09:47:23;;;;;;;3.85;1.77;;;;;;;10.84;78.02;101528.69;5033498;28;20021;-47
2022/12/05 09:49:52;;;;;;;3.80;1.83;;;;;;;10.94;77.66;101512.31;5033863;28;20033;-46
2022/12/05 09:52:36;;;;;;;5.60;1.50;;;;;;;10.93;77.59;101520.50;5038624;28;20120;-46
2022/12/05 09:55:14;;;;;;;4.53;1.88;;;;;;;10.99;77.68;101523.28;5053647;28;20481;-46
2022/12/05 09:57:56;;;;;;;4.30;1.70;;;;;;;10.87;78.08;101523.97;5038912;28;20040;-47
2022/12/05 10:00:25;;;;;;;5.20;1.70;;;;;;;10.93;78.41;101526.69;5033832;28;20072;-46
2022/12/05 10:03:05;;;;;;;3.22;1.92;;;;;;;10.84;78.48;101525.19;5033795;28;20072;-45
2022/12/05 10:05:34;;;;;;;4.43;1.67;;;;;;;11.06;77.79;101523.34;5033887;28;20017;-44
2022/12/05 10:08:24;;;;;;;4.93;1.77;;;;;;;11.02;77.75;101520.19;5032806;28;20034;-44
2022/12/05 10:11:04;;;;;;;4.18;1.52;;;;;;;10.94;78.01;101530.19;5033283;28;20037;-44
2022/12/05 10:14:05;;;;;;;3.85;1.50;;;;;;;10.99;78.18;101517.06;5013947;28;20037;-44
2022/12/05 10:16:41;;;;;;;4.65;1.98;;;;;;;11.01;77.85;101520.41;5014086;28;20048;-44
2022/12/05 10:19:17;;;;;;;5.15;1.65;;;;;;;11.02;77.74;101512.16;5033123;28;20032;-44
2022/12/05 10:21:57;;;;;;;5.38;1.80;;;;;;;10.91;77.52;101512.69;5033401;28;20502;-44
2022/12/05 10:24:46;;;;;;;6.22;2.08;;;;;;;11.03;77.23;101513.81;5030933;28;20483;-45
2022/12/05 10:27:32;;;;;;;4.57;1.33;;;;;;;10.89;77.82;101517.41;5021552;28;20109;-45
2022/12/05 10:30:06;;;;;;;7.55;1.80;;;;;;;11.02;76.90;101506.81;5022106;28;20037;-47
2022/12/05 10:32:46;;;;;;;4.15;1.45;;;;;;;10.89;77.47;101501.34;5020402;28;20025;-45
2022/12/05 10:35:19;;;;;;;5.60;1.65;;;;;;;10.98;77.27;101496.66;5012726;28;20109;-44
2022/12/05 10:37:56;;;;;;;7.75;1.50;;;;;;;11.00;77.17;101491.97;5028576;28;20091;-45
2022/12/05 10:40:24;;;;;;;7.28;1.58;;;;;;;10.99;77.19;101501.00;5014485;28;20030;-46
2022/12/05 10:42:50;;;;;;;8.57;1.55;;;;;;;10.94;77.54;101495.38;5032990;28;20042;-44
2022/12/05 10:45:22;;;;;;;6.15;1.55;;;;;;;10.99;77.46;101503.69;5038709;28;20035;-46
2022/12/05 10:47:53;;;;;;;5.32;1.40;;;;;;;10.89;77.38;101493.31;5037945;28;20096;-45
2022/12/05 10:50:21;;;;;;;5.45;1.70;;;;;;;11.03;76.95;101492.38;5052745;28;20046;-45
2022/12/05 10:52:48;;;;;;;5.38;1.33;;;;;;;11.07;76.97;101487.47;5050864;28;20107;-45
2022/12/05 10:55:17;;;;;;;5.65;1.40;;;;;;;11.06;77.19;101494.69;5052398;28;20086;-45
2022/12/05 10:57:50;;;;;;;3.60;1.42;;;;;;;11.09;76.86;101501.50;5031095;28;20457;-45
2022/12/05 11:00:20;;;;;;;4.72;1.25;;;;;;;11.12;77.14;101492.25;5012848;28;20025;-44
2022/12/05 11:02:48;;;;;;;6.93;1.50;;;;;;;11.12;77.36;101485.06;5023053;28;20029;-45
2022/12/05 11:05:14;;;;;;;5.75;1.33;;;;;;;11.08;77.81;101491.81;5038389;28;20033;-44
2022/12/05 11:07:43;;;;;;;9.68;1.75;;;;;;;11.17;77.65;101490.66;5052396;28;20035;-45
2022/12/05 11:10:27;;;;;;;4.22;1.33;;;;;;;11.26;77.53;101496.69;5052276;28;20032;-45
2022/12/05 11:12:56;;;;;;;6.05;1.27;;;;;;;11.08;77.95;101491.81;5052868;28;20072;-46
2022/12/05 11:15:25;;;;;;;4.90;1.35;;;;;;;11.08;78.10;101497.16;5038713;28;20032;-45
2022/12/05 11:17:53;;;;;;;3.90;1.13;;;;;;;11.27;77.21;101501.88;5032119;28;20025;-46
2022/12/05 11:20:19;;;;;;;8.15;1.42;;;;;;;11.26;77.37;101505.56;5032102;28;20033;-46
2022/12/05 11:22:55;;;;;;;9.50;1.60;;;;;;;11.11;79.25;101518.22;5042368;28;20025;-48
2022/12/05 11:25:35;;;;;;;8.13;1.60;;;;;;;11.17;79.99;101508.59;5052164;28;20094;-46
2022/12/05 11:28:32;;;;;;;6.03;1.85;;;;;;;11.09;80.88;101498.81;5051871;28;20028;-47
2022/12/05 11:31:19;;;;;;;7.38;1.50;;;;;;;10.94;81.27;101500.75;5051913;28;20083;-48
2022/12/05 11:34:01;;;;;;;6.32;1.60;;;;;;;10.81;81.82;101491.56;5052082;28;20029;-47
2022/12/05 11:36:51;;;;;;;6.72;1.65;;;;;;;10.82;81.66;101509.28;5052043;28;20120;-46
2022/12/05 11:39:17;;;;;;;7.18;1.77;;;;;;;10.72;81.88;101506.13;5044211;28;20052;-46
2022/12/05 11:42:20;;;;;;;5.15;1.50;;;;;;;10.71;82.27;101499.09;5032584;28;20033;-46
2022/12/05 11:45:07;;;;;;;6.55;1.10;;;;;;;10.69;82.30;101485.06;5032134;28;20414;-45
2022/12/05 11:48:08;;;;;;;3.65;1.65;;;;;;;10.67;82.58;101484.44;5030950;28;20052;-46
2022/12/05 11:51:10;;;;;;;2.95;1.60;;;;;;;10.56;83.01;101476.91;5021238;28;20534;-46
2022/12/05 11:54:07;;;;;;;7.35;2.08;;;;;;;10.53;83.39;101474.59;5028069;28;20038;-46
2022/12/05 11:56:53;;;;;;;5.85;1.70;;;;;;;10.55;84.03;101475.25;5032007;28;20440;-46
2022/12/05 11:59:37;;;;;;;4.88;1.38;;;;;;;10.61;84.10;101482.53;5011395;28;20066;-46